createdAt,value
2018-01-25T00:00:02.015Z,9.44
2018-01-25T00:01:08.162Z,9.39
2018-01-25T00:02:14.286Z,9.35
2018-01-25T00:03:20.499Z,9.35
2018-01-25T00:04:26.694Z,9.34
2018-01-25T00:05:33.013Z,9.27
2018-01-25T00:06:39.268Z,9.23
2018-01-25T00:07:45.363Z,9.27
2018-01-25T00:08:51.565Z,9.22
2018-01-25T00:09:57.751Z,9.18
2018-01-25T00:11:03.923Z,9.13
2018-01-25T00:12:10.145Z,9.07
2018-01-25T00:13:16.372Z,9.02
2018-01-25T00:14:22.584Z,9.02
2018-01-25T00:15:28.758Z,9.01
2018-01-25T00:16:34.977Z,8.98
2018-01-25T00:17:41.188Z,8.96
2018-01-25T00:18:48.334Z,8.97
2018-01-25T00:19:53.594Z,8.97
2018-01-25T00:20:59.784Z,8.94
2018-01-25T00:22:05.924Z,8.92
2018-01-25T00:23:12.167Z,8.93
2018-01-25T00:24:18.330Z,8.97
2018-01-25T00:25:24.504Z,8.96
2018-01-25T00:26:30.782Z,9.00
2018-01-25T00:27:36.924Z,9.00
2018-01-25T00:28:43.231Z,9.00
2018-01-25T00:29:49.396Z,9.01
2018-01-25T00:30:55.551Z,8.98
2018-01-25T00:32:01.701Z,9.01
2018-01-25T00:33:07.945Z,8.98
2018-01-25T00:34:14.091Z,9.03
2018-01-25T00:35:20.302Z,9.02
2018-01-25T00:36:26.505Z,9.02
2018-01-25T00:37:32.694Z,9.02
2018-01-25T00:38:38.879Z,9.03
2018-01-25T00:39:45.064Z,9.02
2018-01-25T00:40:51.298Z,8.98
2018-01-25T00:41:57.463Z,8.96
2018-01-25T00:43:03.672Z,8.94
2018-01-25T00:44:09.873Z,8.94
2018-01-25T00:45:16.052Z,8.93
2018-01-25T00:46:22.311Z,8.89
2018-01-25T00:47:28.442Z,8.84
2018-01-25T00:48:34.652Z,8.85
2018-01-25T00:49:40.836Z,8.89
2018-01-25T00:50:48.056Z,8.84
2018-01-25T00:51:53.269Z,8.81
2018-01-25T00:52:59.443Z,8.84
2018-01-25T00:54:05.680Z,8.85
2018-01-25T00:55:11.827Z,8.84
2018-01-25T00:56:18.070Z,8.86
2018-01-25T00:57:24.214Z,8.82
2018-01-25T00:58:30.472Z,8.80
2018-01-25T00:59:36.676Z,8.72
2018-01-25T01:00:42.838Z,8.65
2018-01-25T01:01:49.084Z,8.61
2018-01-25T01:02:55.216Z,8.64
2018-01-25T01:04:01.465Z,8.68
2018-01-25T01:05:08.594Z,8.68
2018-01-25T01:06:14.827Z,8.75
2018-01-25T01:07:20.042Z,8.75
2018-01-25T01:08:26.195Z,8.79
2018-01-25T01:09:32.447Z,8.76
2018-01-25T01:10:38.647Z,8.68
2018-01-25T01:11:44.801Z,8.71
2018-01-25T01:12:50.963Z,8.67
2018-01-25T01:13:57.170Z,8.68
2018-01-25T01:15:03.327Z,8.61
2018-01-25T01:16:09.521Z,8.57
2018-01-25T01:17:15.726Z,8.56
2018-01-25T01:18:21.939Z,8.51
2018-01-25T01:19:28.100Z,8.48
2018-01-25T01:20:34.318Z,8.52
2018-01-25T01:21:40.480Z,8.51
2018-01-25T01:22:46.647Z,8.48
2018-01-25T01:23:52.836Z,8.48
2018-01-25T01:24:59.071Z,8.53
2018-01-25T01:26:05.285Z,8.48
2018-01-25T01:27:11.482Z,8.48
2018-01-25T01:28:17.639Z,8.47
2018-01-25T01:29:23.847Z,8.47
2018-01-25T01:30:29.999Z,8.47
2018-01-25T01:31:36.237Z,8.44
2018-01-25T01:32:42.356Z,8.46
2018-01-25T01:33:48.619Z,8.47
2018-01-25T01:34:54.747Z,8.50
2018-01-25T01:36:00.951Z,8.48
2018-01-25T01:37:08.107Z,8.43
2018-01-25T01:38:14.281Z,8.47
2018-01-25T01:39:19.516Z,8.47
2018-01-25T01:40:26.679Z,8.52
2018-01-25T01:41:31.921Z,8.60
2018-01-25T01:42:38.073Z,8.61
2018-01-25T01:43:44.289Z,8.63
2018-01-25T01:44:50.448Z,8.61
2018-01-25T01:45:56.612Z,8.60
2018-01-25T01:47:02.791Z,8.60
2018-01-25T01:48:09.028Z,8.59
2018-01-25T01:49:15.200Z,8.60
2018-01-25T01:50:21.375Z,8.56
2018-01-25T01:51:27.623Z,8.56
2018-01-25T01:52:33.757Z,8.61
2018-01-25T01:53:40.949Z,8.64
2018-01-25T01:54:46.111Z,8.71
2018-01-25T01:55:53.368Z,8.77
2018-01-25T01:56:58.598Z,8.85
2018-01-25T01:58:04.726Z,8.90
2018-01-25T01:59:10.916Z,8.89
2018-01-25T02:00:17.153Z,8.90
2018-01-25T02:01:23.300Z,8.90
2018-01-25T02:02:29.463Z,8.82
2018-01-25T02:03:35.663Z,8.79
2018-01-25T02:04:41.838Z,8.72
2018-01-25T02:05:48.012Z,8.72
2018-01-25T02:06:54.277Z,8.69
2018-01-25T02:08:00.790Z,8.64
2018-01-25T02:09:06.604Z,8.65
2018-01-25T02:10:12.806Z,8.65
2018-01-25T02:11:19.010Z,8.68
2018-01-25T02:12:25.220Z,8.73
2018-01-25T02:13:31.480Z,8.75
2018-01-25T02:14:37.548Z,8.82
2018-01-25T02:15:43.854Z,8.82
2018-01-25T02:16:49.962Z,8.82
2018-01-25T02:17:56.171Z,8.81
2018-01-25T02:19:03.321Z,10.06
2018-01-25T02:20:08.590Z,8.75
2018-01-25T02:21:15.722Z,8.72
2018-01-25T02:22:20.970Z,8.65
2018-01-25T02:23:28.072Z,8.60
2018-01-25T02:24:33.286Z,8.63
2018-01-25T02:25:39.478Z,8.61
2018-01-25T02:26:45.702Z,8.72
2018-01-25T02:27:51.872Z,8.65
2018-01-25T02:28:58.070Z,8.64
2018-01-25T02:30:04.240Z,8.61
2018-01-25T02:31:10.441Z,8.64
2018-01-25T02:32:16.580Z,8.68
2018-01-25T02:33:22.797Z,8.68
2018-01-25T02:34:28.961Z,8.65
2018-01-25T02:35:35.146Z,8.64
2018-01-25T02:36:41.406Z,8.63
2018-01-25T02:37:47.516Z,8.61
2018-01-25T02:38:53.702Z,8.64
2018-01-25T02:39:59.914Z,8.71
2018-01-25T02:41:07.175Z,8.72
2018-01-25T02:42:12.270Z,8.76
2018-01-25T02:43:19.461Z,8.72
2018-01-25T02:44:24.719Z,8.71
2018-01-25T02:45:31.949Z,8.69
2018-01-25T02:46:37.095Z,8.63
2018-01-25T02:47:43.262Z,8.61
2018-01-25T02:48:49.424Z,8.64
2018-01-25T02:49:55.633Z,8.68
2018-01-25T02:51:02.089Z,8.77
2018-01-25T02:52:08.041Z,8.81
2018-01-25T02:53:15.203Z,8.81
2018-01-25T02:54:20.369Z,8.85
2018-01-25T02:55:26.548Z,8.85
2018-01-25T02:56:32.801Z,8.89
2018-01-25T02:57:38.968Z,8.93
2018-01-25T02:58:45.164Z,8.97
2018-01-25T02:59:51.299Z,8.98
2018-01-25T03:00:57.507Z,9.02
2018-01-25T03:02:03.741Z,9.05
2018-01-25T03:03:09.946Z,9.10
2018-01-25T03:04:16.080Z,9.14
2018-01-25T03:05:22.268Z,9.18
2018-01-25T03:06:28.494Z,9.23
2018-01-25T03:07:34.675Z,9.23
2018-01-25T03:08:40.860Z,9.21
2018-01-25T03:09:47.052Z,9.17
2018-01-25T03:10:53.529Z,9.13
2018-01-25T03:11:59.471Z,9.09
2018-01-25T03:13:05.636Z,9.02
2018-01-25T03:14:11.825Z,9.01
2018-01-25T03:15:18.021Z,9.03
2018-01-25T03:16:24.243Z,9.06
2018-01-25T03:17:30.399Z,9.10
2018-01-25T03:18:36.589Z,9.10
2018-01-25T03:19:42.804Z,9.07
2018-01-25T03:20:48.982Z,9.03
2018-01-25T03:21:55.211Z,9.01
2018-01-25T03:23:01.375Z,9.01
2018-01-25T03:24:07.551Z,9.01
2018-01-25T03:25:13.758Z,9.03
2018-01-25T03:26:19.972Z,9.03
2018-01-25T03:27:26.146Z,9.10
2018-01-25T03:28:32.341Z,9.13
2018-01-25T03:29:38.559Z,9.17
2018-01-25T03:30:44.756Z,9.15
2018-01-25T03:31:50.935Z,9.18
2018-01-25T03:32:57.166Z,9.18
2018-01-25T03:34:04.296Z,9.17
2018-01-25T03:35:09.496Z,9.15
2018-01-25T03:36:16.703Z,9.18
2018-01-25T03:37:22.012Z,9.21
2018-01-25T03:38:28.089Z,9.22
2018-01-25T03:39:34.280Z,9.22
2018-01-25T03:40:40.543Z,9.21
2018-01-25T03:41:46.704Z,9.18
2018-01-25T03:42:53.023Z,9.18
2018-01-25T03:43:59.155Z,9.18
2018-01-25T03:45:05.308Z,9.19
2018-01-25T03:46:12.515Z,9.22
2018-01-25T03:47:17.767Z,9.23
2018-01-25T03:48:23.898Z,9.23
2018-01-25T03:49:30.071Z,9.27
2018-01-25T03:51:42.460Z,9.27
2018-01-25T03:52:48.181Z,9.30
2018-01-25T03:53:54.892Z,9.31
2018-01-25T03:55:01.064Z,9.35
2018-01-25T03:56:07.253Z,9.35
2018-01-25T03:57:13.542Z,9.35
2018-01-25T03:58:19.691Z,9.31
2018-01-25T03:59:25.848Z,9.28
2018-01-25T04:00:32.055Z,9.27
2018-01-25T04:01:38.327Z,9.27
2018-01-25T04:02:44.436Z,9.27
2018-01-25T04:03:50.662Z,9.27
2018-01-25T04:04:56.848Z,9.27
2018-01-25T04:06:03.065Z,9.27
2018-01-25T04:07:09.266Z,9.27
2018-01-25T04:08:15.491Z,9.27
2018-01-25T04:09:21.638Z,9.26
2018-01-25T04:10:27.830Z,9.25
2018-01-25T04:11:34.086Z,9.22
2018-01-25T04:12:40.232Z,9.22
2018-01-25T04:13:46.458Z,9.22
2018-01-25T04:14:52.706Z,9.22
2018-01-25T04:15:58.840Z,9.22
2018-01-25T04:17:05.073Z,9.26
2018-01-25T04:18:11.204Z,9.27
2018-01-25T04:19:17.414Z,9.27
2018-01-25T04:20:23.613Z,9.26
2018-01-25T04:21:29.827Z,9.27
2018-01-25T04:22:36.024Z,9.27
2018-01-25T04:23:42.206Z,9.27
2018-01-25T04:24:48.418Z,9.25
2018-01-25T04:25:55.579Z,9.26
2018-01-25T04:27:00.814Z,9.23
2018-01-25T04:28:06.990Z,9.25
2018-01-25T04:29:13.192Z,9.23
2018-01-25T04:30:19.411Z,9.19
2018-01-25T04:31:25.613Z,9.17
2018-01-25T04:32:31.839Z,9.15
2018-01-25T04:33:38.018Z,9.15
2018-01-25T04:34:44.164Z,9.14
2018-01-25T04:35:50.432Z,9.13
2018-01-25T04:36:56.593Z,9.11
2018-01-25T04:38:02.745Z,9.10
2018-01-25T04:39:08.967Z,9.09
2018-01-25T04:40:15.206Z,9.10
2018-01-25T04:41:21.349Z,9.10
2018-01-25T04:42:27.566Z,9.13
2018-01-25T04:43:33.746Z,9.14
2018-01-25T04:44:39.926Z,9.14
2018-01-25T04:45:46.143Z,9.14
2018-01-25T04:46:52.358Z,9.13
2018-01-25T04:47:58.623Z,9.13
2018-01-25T04:49:04.722Z,9.11
2018-01-25T04:50:11.005Z,9.13
2018-01-25T04:51:17.167Z,9.13
2018-01-25T04:52:23.324Z,9.11
2018-01-25T04:53:29.509Z,9.14
2018-01-25T04:54:35.741Z,9.14
2018-01-25T04:55:42.910Z,9.14
2018-01-25T04:56:48.108Z,9.17
2018-01-25T04:57:54.280Z,9.15
2018-01-25T04:59:00.468Z,9.15
2018-01-25T05:00:06.676Z,9.14
2018-01-25T05:01:12.853Z,9.14
2018-01-25T05:02:19.185Z,9.15
2018-01-25T05:03:25.315Z,9.21
2018-01-25T05:04:31.455Z,9.18
2018-01-25T05:05:37.646Z,9.18
2018-01-25T05:06:43.875Z,9.19
2018-01-25T05:07:50.043Z,9.21
2018-01-25T05:08:56.350Z,9.19
2018-01-25T05:10:02.443Z,9.18
2018-01-25T05:11:08.670Z,9.18
2018-01-25T05:12:14.914Z,9.21
2018-01-25T05:13:21.068Z,9.19
2018-01-25T05:14:27.254Z,9.18
2018-01-25T05:15:33.429Z,9.14
2018-01-25T05:16:39.669Z,9.14
2018-01-25T05:17:45.816Z,9.14
2018-01-25T05:18:52.087Z,9.13
2018-01-25T05:19:58.219Z,9.13
2018-01-25T05:22:10.637Z,9.11
2018-01-25T05:23:16.310Z,9.11
2018-01-25T05:24:23.033Z,9.10
2018-01-25T05:25:29.277Z,9.13
2018-01-25T05:26:35.445Z,9.14
2018-01-25T05:27:41.623Z,9.13
2018-01-25T05:28:47.739Z,9.10
2018-01-25T05:29:53.950Z,9.11
2018-01-25T05:31:00.141Z,9.11
2018-01-25T05:32:06.353Z,9.14
2018-01-25T05:33:12.542Z,9.14
2018-01-25T05:34:18.737Z,9.13
2018-01-25T05:35:24.954Z,9.11
2018-01-25T05:36:31.162Z,9.14
2018-01-25T05:37:37.357Z,9.13
2018-01-25T05:38:43.551Z,9.11
2018-01-25T05:39:49.685Z,9.10
2018-01-25T05:40:55.882Z,9.14
2018-01-25T05:42:02.115Z,9.14
2018-01-25T05:43:08.314Z,9.15
2018-01-25T05:44:14.484Z,9.15
2018-01-25T05:45:20.683Z,9.15
2018-01-25T05:46:26.889Z,9.14
2018-01-25T05:47:33.090Z,9.14
2018-01-25T05:48:40.238Z,9.15
2018-01-25T05:49:45.467Z,9.17
2018-01-25T05:50:51.682Z,9.14
2018-01-25T05:51:57.917Z,9.13
2018-01-25T05:53:05.090Z,9.07
2018-01-25T05:54:11.240Z,9.10
2018-01-25T05:55:16.419Z,9.11
2018-01-25T05:56:22.621Z,9.11
2018-01-25T05:57:28.858Z,9.11
2018-01-25T05:58:35.047Z,9.11
2018-01-25T05:59:41.241Z,9.13
2018-01-25T06:01:53.683Z,9.14
2018-01-25T06:02:59.283Z,9.17
2018-01-25T06:04:05.995Z,9.18
2018-01-25T06:05:12.284Z,9.22
2018-01-25T06:06:18.389Z,9.28
2018-01-25T06:07:24.589Z,9.31
2018-01-25T06:08:30.809Z,9.34
2018-01-25T06:09:37.033Z,9.38
2018-01-25T06:10:43.208Z,9.39
2018-01-25T06:11:50.374Z,9.39
2018-01-25T06:12:55.639Z,9.42
2018-01-25T06:14:01.785Z,9.42
2018-01-25T06:15:08.038Z,9.47
2018-01-25T06:16:14.190Z,9.47
2018-01-25T06:17:20.372Z,9.50
2018-01-25T06:18:26.580Z,9.51
2018-01-25T06:19:32.805Z,9.52
2018-01-25T06:20:38.979Z,9.51
2018-01-25T06:21:45.173Z,9.51
2018-01-25T06:22:51.397Z,9.50
2018-01-25T06:23:57.557Z,9.48
2018-01-25T06:25:04.807Z,9.52
2018-01-25T06:26:10.030Z,9.53
2018-01-25T06:27:16.184Z,9.55
2018-01-25T06:28:22.499Z,9.56
2018-01-25T06:29:29.594Z,9.59
2018-01-25T06:30:34.805Z,9.61
2018-01-25T06:31:40.992Z,9.63
2018-01-25T06:32:47.197Z,9.64
2018-01-25T06:33:54.369Z,9.68
2018-01-25T06:34:59.656Z,9.68
2018-01-25T06:36:05.791Z,9.69
2018-01-25T06:37:12.015Z,9.72
2018-01-25T06:38:18.313Z,9.72
2018-01-25T06:39:24.416Z,9.77
2018-01-25T06:40:30.620Z,9.77
2018-01-25T06:41:37.815Z,9.79
2018-01-25T06:42:43.054Z,9.80
2018-01-25T06:43:49.275Z,9.82
2018-01-25T06:44:55.553Z,9.84
2018-01-25T06:46:01.722Z,9.84
2018-01-25T06:47:07.967Z,9.85
2018-01-25T06:48:14.078Z,9.85
2018-01-25T06:49:20.255Z,9.86
2018-01-25T06:50:26.560Z,9.86
2018-01-25T06:51:32.720Z,9.84
2018-01-25T06:52:38.930Z,9.84
2018-01-25T06:53:45.160Z,9.81
2018-01-25T06:54:51.355Z,9.80
2018-01-25T06:55:57.554Z,9.77
2018-01-25T06:57:03.744Z,9.75
2018-01-25T06:58:09.971Z,9.72
2018-01-25T06:59:16.150Z,9.72
2018-01-25T07:00:22.472Z,9.77
2018-01-25T07:01:29.636Z,9.81
2018-01-25T07:02:34.791Z,9.85
2018-01-25T07:03:41.034Z,9.85
2018-01-25T07:04:47.278Z,9.85
2018-01-25T07:05:53.455Z,9.88
2018-01-25T07:06:59.686Z,9.89
2018-01-25T07:08:05.855Z,9.89
2018-01-25T07:09:12.061Z,9.89
2018-01-25T07:10:18.237Z,9.90
2018-01-25T07:11:24.477Z,9.92
2018-01-25T07:12:31.735Z,9.90
2018-01-25T07:13:36.927Z,9.86
2018-01-25T07:14:43.251Z,9.86
2018-01-25T07:15:49.421Z,9.85
2018-01-25T07:16:55.534Z,9.89
2018-01-25T07:18:01.240Z,9.89
2018-01-25T07:19:07.947Z,9.93
2018-01-25T07:20:14.153Z,9.93
2018-01-25T07:21:20.404Z,9.93
2018-01-25T07:22:26.603Z,9.96
2018-01-25T07:23:32.853Z,9.97
2018-01-25T07:24:39.011Z,9.97
2018-01-25T07:25:45.211Z,10.01
2018-01-25T07:26:51.440Z,10.01
2018-01-25T07:27:57.645Z,10.01
2018-01-25T07:29:03.853Z,10.02
2018-01-25T07:30:10.078Z,10.05
2018-01-25T07:31:16.285Z,10.07
2018-01-25T07:32:22.532Z,10.07
2018-01-25T07:33:28.740Z,10.09
2018-01-25T07:34:34.926Z,10.10
2018-01-25T07:35:41.191Z,10.13
2018-01-25T07:36:47.409Z,10.14
2018-01-25T07:37:53.592Z,10.17
2018-01-25T07:39:00.824Z,10.19
2018-01-25T07:40:06.066Z,10.22
2018-01-25T07:41:12.258Z,10.22
2018-01-25T07:42:19.598Z,10.23
2018-01-25T07:43:24.234Z,10.22
2018-01-25T07:44:30.900Z,10.22
2018-01-25T07:45:37.199Z,10.25
2018-01-25T07:46:43.370Z,10.27
2018-01-25T07:47:49.620Z,10.31
2018-01-25T07:48:56.796Z,10.35
2018-01-25T07:50:03.059Z,10.36
2018-01-25T07:51:08.335Z,10.39
2018-01-25T07:52:14.456Z,10.42
2018-01-25T07:53:20.731Z,10.43
2018-01-25T07:54:26.908Z,10.44
2018-01-25T07:55:33.164Z,10.44
2018-01-25T07:56:39.403Z,10.47
2018-01-25T07:57:45.629Z,10.50
2018-01-25T07:58:51.846Z,10.51
2018-01-25T07:59:58.051Z,10.52
2018-01-25T08:01:04.299Z,10.52
2018-01-25T08:02:10.521Z,10.55
2018-01-25T08:03:16.909Z,10.57
2018-01-25T08:04:22.993Z,10.60
2018-01-25T08:05:29.238Z,10.64
2018-01-25T08:06:35.489Z,10.65
2018-01-25T08:07:41.724Z,10.68
2018-01-25T08:08:47.901Z,10.72
2018-01-25T08:09:54.166Z,10.73
2018-01-25T08:11:00.382Z,10.76
2018-01-25T08:12:06.633Z,10.77
2018-01-25T08:13:13.901Z,10.82
2018-01-25T08:14:19.167Z,10.84
2018-01-25T08:15:25.337Z,10.89
2018-01-25T08:16:31.743Z,10.92
2018-01-25T08:17:37.805Z,10.92
2018-01-25T08:18:44.133Z,10.94
2018-01-25T08:19:50.329Z,10.94
2018-01-25T08:20:56.591Z,10.96
2018-01-25T08:22:03.038Z,10.96
2018-01-25T08:23:09.041Z,10.97
2018-01-25T08:24:15.323Z,10.97
2018-01-25T08:25:21.516Z,10.98
2018-01-25T08:26:27.769Z,11.00
2018-01-25T08:27:34.072Z,11.03
2018-01-25T08:28:40.255Z,11.06
2018-01-25T08:29:46.505Z,11.07
2018-01-25T08:30:52.769Z,11.09
2018-01-25T08:31:58.970Z,11.10
2018-01-25T08:33:05.260Z,11.13
2018-01-25T08:34:11.470Z,11.18
2018-01-25T08:35:17.731Z,11.21
2018-01-25T08:36:23.990Z,11.25
2018-01-25T08:37:30.263Z,11.27
2018-01-25T08:38:36.569Z,11.30
2018-01-25T08:39:42.744Z,11.31
2018-01-25T08:40:48.993Z,11.38
2018-01-25T08:41:56.236Z,11.38
2018-01-25T08:43:01.540Z,11.36
2018-01-25T08:44:07.774Z,11.39
2018-01-25T08:45:14.045Z,11.39
2018-01-25T08:46:20.302Z,11.36
2018-01-25T08:47:26.534Z,11.35
2018-01-25T08:48:32.847Z,11.32
2018-01-25T08:49:39.062Z,11.31
2018-01-25T08:50:45.374Z,11.32
2018-01-25T08:51:51.546Z,11.32
2018-01-25T08:52:57.399Z,11.32
2018-01-25T08:54:04.109Z,11.31
2018-01-25T08:55:10.338Z,11.27
2018-01-25T08:56:16.592Z,11.26
2018-01-25T08:57:22.853Z,11.27
2018-01-25T08:58:29.207Z,11.31
2018-01-25T08:59:35.404Z,11.35
2018-01-25T09:00:41.644Z,11.36
2018-01-25T09:01:47.888Z,11.43
2018-01-25T09:02:54.147Z,11.43
2018-01-25T09:04:00.407Z,11.39
2018-01-25T09:06:12.920Z,11.31
2018-01-25T09:07:18.658Z,11.30
2018-01-25T09:08:25.467Z,11.26
2018-01-25T09:09:31.775Z,11.25
2018-01-25T09:10:37.978Z,11.19
2018-01-25T09:11:44.200Z,11.13
2018-01-25T09:12:50.495Z,11.13
2018-01-25T09:13:57.036Z,11.10
2018-01-25T09:15:02.488Z,11.06
2018-01-25T09:16:09.237Z,11.01
2018-01-25T09:17:16.478Z,10.96
2018-01-25T09:18:21.689Z,10.93
2018-01-25T09:19:27.960Z,10.85
2018-01-25T09:20:34.228Z,10.79
2018-01-25T09:21:40.462Z,10.79
2018-01-25T09:22:46.728Z,10.77
2018-01-25T09:23:52.457Z,10.75
2018-01-25T09:24:59.210Z,10.71
2018-01-25T09:26:05.406Z,10.68
2018-01-25T09:27:11.687Z,10.67
2018-01-25T09:28:17.993Z,10.67
2018-01-25T09:29:24.183Z,10.64
2018-01-25T09:30:30.709Z,10.63
2018-01-25T09:31:36.644Z,10.60
2018-01-25T09:32:42.891Z,10.57
2018-01-25T09:33:49.181Z,10.57
2018-01-25T09:34:55.367Z,10.55
2018-01-25T09:36:01.743Z,10.56
2018-01-25T09:37:07.849Z,10.55
2018-01-25T09:38:14.137Z,10.56
2018-01-25T09:39:20.439Z,10.57
2018-01-25T09:40:26.594Z,10.57
2018-01-25T09:41:32.813Z,10.56
2018-01-25T09:42:39.099Z,10.56
2018-01-25T09:43:45.283Z,10.56
2018-01-25T09:44:51.654Z,10.57
2018-01-25T09:45:57.793Z,10.57
2018-01-25T09:47:04.045Z,10.60
2018-01-25T09:48:10.291Z,10.57
2018-01-25T09:49:16.510Z,10.61
2018-01-25T09:51:30.411Z,10.67
2018-01-25T09:53:41.704Z,10.69
2018-01-25T09:57:01.462Z,10.68
2018-01-25T09:58:07.500Z,10.68
2018-01-25T09:59:14.398Z,10.72
2018-01-25T10:01:26.241Z,10.68
2018-01-25T10:02:32.518Z,10.64
2018-01-25T10:04:53.272Z,10.56
2018-01-25T10:06:20.528Z,10.55
2018-01-25T10:07:34.558Z,10.55
2018-01-25T10:08:49.689Z,10.51
2018-01-25T10:10:23.248Z,10.48
2018-01-25T10:11:29.903Z,10.47
2018-01-25T10:14:12.842Z,10.56
2018-01-25T10:16:40.615Z,10.65
2018-01-25T10:22:44.934Z,10.75
2018-01-25T10:26:58.241Z,10.71
2018-01-25T10:28:54.895Z,10.69
2018-01-25T10:32:48.301Z,10.86
2018-01-25T10:34:18.013Z,10.90
2018-01-25T10:37:16.331Z,10.97
2018-01-25T10:39:39.228Z,10.98
2018-01-25T10:47:09.096Z,10.90
2018-01-25T10:48:27.792Z,10.89
2018-01-25T10:50:55.247Z,10.72
2018-01-25T10:52:25.417Z,10.72
2018-01-25T10:55:08.343Z,10.84
2018-01-25T10:56:18.371Z,10.92
2018-01-25T11:00:26.916Z,10.92
2018-01-25T11:02:07.447Z,10.82
2018-01-25T11:04:52.892Z,10.69
2018-01-25T11:06:05.555Z,10.68
2018-01-25T11:07:22.757Z,10.67
2018-01-25T11:15:38.732Z,10.60
2018-01-25T11:20:06.428Z,10.65
2018-01-25T11:22:43.508Z,10.52
2018-01-25T11:24:23.216Z,10.53
2018-01-25T11:25:58.338Z,10.53
2018-01-25T11:27:33.389Z,10.56
2018-01-25T11:28:51.240Z,10.56
2018-01-25T11:29:57.904Z,10.52
2018-01-25T11:31:03.496Z,10.52
2018-01-25T11:32:09.805Z,10.51
2018-01-25T11:33:16.024Z,10.50
2018-01-25T11:34:22.336Z,10.47
2018-01-25T11:35:28.548Z,10.42
2018-01-25T11:36:34.748Z,10.39
2018-01-25T11:37:40.956Z,10.39
2018-01-25T11:38:47.415Z,10.38
2018-01-25T11:39:53.485Z,10.34
2018-01-25T11:40:59.689Z,10.38
2018-01-25T11:42:06.228Z,10.38
2018-01-25T11:43:12.151Z,10.43
2018-01-25T11:44:18.444Z,10.46
2018-01-25T11:45:24.684Z,10.47
2018-01-25T11:46:30.872Z,10.48
2018-01-25T11:47:37.301Z,10.47
2018-01-25T11:49:49.650Z,10.39
2018-01-25T11:51:17.257Z,10.36
2018-01-25T11:53:33.180Z,10.38
2018-01-25T11:54:39.383Z,10.43
2018-01-25T11:55:45.646Z,10.47
2018-01-25T11:56:51.905Z,10.52
2018-01-25T11:57:58.149Z,10.56
2018-01-25T11:59:04.431Z,10.60
2018-01-25T12:00:10.694Z,10.68
2018-01-25T12:01:16.852Z,10.69
2018-01-25T12:02:23.158Z,10.72
2018-01-25T12:03:29.494Z,10.73
2018-01-25T12:04:35.664Z,10.72
2018-01-25T12:05:41.866Z,10.72
2018-01-25T12:06:47.594Z,10.73
2018-01-25T12:07:54.330Z,10.77
2018-01-25T12:09:01.604Z,10.79
2018-01-25T12:10:06.919Z,10.77
2018-01-25T12:11:13.104Z,10.77
2018-01-25T12:12:20.394Z,10.73
2018-01-25T12:13:25.635Z,10.76
2018-01-25T12:14:31.858Z,10.77
2018-01-25T12:16:44.327Z,10.72
2018-01-25T12:17:50.558Z,10.72
2018-01-25T12:18:57.919Z,10.73
2018-01-25T12:21:09.381Z,10.71
2018-01-25T12:22:47.726Z,10.72
2018-01-25T12:25:44.339Z,10.77
2018-01-25T12:26:50.418Z,10.75
2018-01-25T12:28:01.701Z,10.72
2018-01-25T12:29:16.304Z,10.72
2018-01-25T12:30:53.701Z,10.68
2018-01-25T12:32:04.674Z,10.64
2018-01-25T12:33:13.379Z,10.61
2018-01-25T12:34:24.881Z,10.57
2018-01-25T12:35:32.121Z,10.56
2018-01-25T12:36:37.103Z,10.59
2018-01-25T12:37:57.729Z,10.56
2018-01-25T12:39:29.418Z,10.57
2018-01-25T12:40:38.125Z,10.56
2018-01-25T12:41:46.796Z,10.52
2018-01-25T12:43:08.931Z,10.50
2018-01-25T12:44:50.369Z,10.48
2018-01-25T12:46:11.163Z,10.44
2018-01-25T12:49:04.139Z,10.31
2018-01-25T12:50:25.510Z,10.27
2018-01-25T12:51:38.782Z,10.25
2018-01-25T12:53:23.955Z,10.19
2018-01-25T12:55:47.981Z,10.18
2018-01-25T12:56:54.688Z,10.19
2018-01-25T12:58:06.441Z,10.21
2018-01-25T12:59:16.431Z,10.25
2018-01-25T13:02:09.273Z,10.31
2018-01-25T13:04:33.294Z,10.31
2018-01-25T13:07:16.541Z,10.34
2018-01-25T13:09:52.181Z,10.40
2018-01-25T13:12:29.128Z,10.38
2018-01-25T13:14:04.235Z,10.35
2018-01-25T13:15:15.674Z,10.35
2018-01-25T13:16:39.793Z,10.32
2018-01-25T13:17:47.126Z,10.31
2018-01-25T13:21:22.258Z,10.31
2018-01-25T13:24:10.886Z,10.39
2018-01-25T13:25:31.895Z,10.39
2018-01-25T13:27:12.670Z,10.39
2018-01-25T13:28:46.095Z,10.35
2018-01-25T13:29:54.719Z,10.39
2018-01-25T13:31:03.490Z,10.43
2018-01-25T13:32:36.966Z,10.42
2018-01-25T13:34:12.173Z,10.40
2018-01-25T13:36:58.088Z,10.40
2018-01-25T13:38:05.584Z,10.39
2018-01-25T13:39:11.946Z,10.36
2018-01-25T13:40:18.237Z,10.35
2018-01-25T13:41:22.342Z,10.32
2018-01-25T13:42:37.186Z,10.31
2018-01-25T13:43:43.565Z,10.28
2018-01-25T13:46:09.441Z,10.25
2018-01-25T13:47:18.360Z,10.27
2018-01-25T13:48:44.004Z,10.26
2018-01-25T13:49:47.450Z,10.25
2018-01-25T13:53:17.320Z,10.18
2018-01-25T13:54:27.361Z,10.22
2018-01-25T13:55:54.493Z,10.22
2018-01-25T13:59:13.430Z,10.31
2018-01-25T14:03:00.247Z,10.27
2018-01-25T14:04:14.173Z,10.26
2018-01-25T14:05:30.002Z,10.22
2018-01-25T14:09:24.051Z,10.13
2018-01-25T14:10:37.108Z,10.11
2018-01-25T14:14:41.533Z,10.15
2018-01-25T14:15:52.767Z,10.11
2018-01-25T14:17:00.029Z,10.13
2018-01-25T14:18:40.090Z,10.14
2018-01-25T14:21:18.590Z,10.15
2018-01-25T14:22:41.638Z,10.11
2018-01-25T14:24:40.341Z,10.09
2018-01-25T14:25:48.296Z,10.10
2018-01-25T14:27:07.049Z,10.14
2018-01-25T14:28:29.409Z,10.17
2018-01-25T14:30:07.173Z,10.14
2018-01-25T14:31:28.067Z,10.09
2018-01-25T14:32:44.154Z,10.05
2018-01-25T14:34:17.798Z,10.02
2018-01-25T14:35:34.469Z,10.07
2018-01-25T14:38:06.506Z,10.10
2018-01-25T14:41:31.420Z,10.05
2018-01-25T14:42:45.765Z,10.02
2018-01-25T14:44:05.519Z,9.98
2018-01-25T14:45:22.741Z,9.98
2018-01-25T14:46:36.358Z,9.96
2018-01-25T14:48:59.438Z,9.94
2018-01-25T14:50:08.948Z,9.93
2018-01-25T14:51:20.956Z,9.92
2018-01-25T14:52:24.343Z,9.89
2018-01-25T14:54:43.185Z,9.89
2018-01-25T14:55:54.139Z,9.88
2018-01-25T15:00:32.561Z,9.85
2018-01-25T15:01:37.770Z,9.85
2018-01-25T15:02:43.384Z,9.84
2018-01-25T15:06:10.818Z,9.82
2018-01-25T15:07:17.004Z,9.84
2018-01-25T15:08:27.563Z,9.81
2018-01-25T15:11:14.268Z,9.80
2018-01-25T15:12:24.271Z,9.77
2018-01-25T15:13:29.601Z,9.77
2018-01-25T15:14:44.864Z,9.77
2018-01-25T15:15:56.594Z,9.77
2018-01-25T15:17:06.026Z,9.76
2018-01-25T15:18:14.137Z,9.77
2018-01-25T15:25:07.160Z,9.72
2018-01-25T15:26:17.421Z,9.73
2018-01-25T15:27:30.509Z,9.72
2018-01-25T15:28:39.544Z,9.72
2018-01-25T15:29:45.756Z,9.71
2018-01-25T15:30:54.483Z,9.69
2018-01-25T15:32:15.963Z,9.69
2018-01-25T15:33:25.816Z,9.71
2018-01-25T15:34:45.977Z,9.69
2018-01-25T15:35:57.363Z,9.69
2018-01-25T15:37:10.939Z,9.68
2018-01-25T15:38:25.711Z,9.68
2018-01-25T15:39:33.771Z,9.68
2018-01-25T15:40:40.848Z,9.67
2018-01-25T15:41:46.222Z,9.67
2018-01-25T15:42:52.373Z,9.65
2018-01-25T15:43:58.688Z,9.64
2018-01-25T15:45:04.838Z,9.64
2018-01-25T15:46:11.489Z,9.64
2018-01-25T15:47:24.160Z,9.61
2018-01-25T15:48:32.662Z,9.61
2018-01-25T15:51:11.956Z,9.63
2018-01-25T15:52:18.190Z,9.60
2018-01-25T15:53:31.943Z,9.59
2018-01-25T15:54:42.914Z,9.57
2018-01-25T15:55:52.283Z,9.56
2018-01-25T15:56:56.553Z,9.60
2018-01-25T15:59:15.159Z,9.56
2018-01-25T16:00:23.513Z,9.55
2018-01-25T16:01:30.928Z,9.53
2018-01-25T16:02:46.316Z,9.52
2018-01-25T16:03:57.900Z,9.48
2018-01-25T16:05:05.950Z,9.48
2018-01-25T16:06:17.800Z,9.47
2018-01-25T16:07:26.570Z,9.48
2018-01-25T16:08:36.820Z,9.47
2018-01-25T16:10:53.481Z,9.46
2018-01-25T16:13:16.300Z,9.44
2018-01-25T16:14:20.804Z,9.42
2018-01-25T16:15:37.710Z,9.40
2018-01-25T16:16:48.351Z,9.36
2018-01-25T16:18:09.018Z,9.36
2018-01-25T16:20:36.179Z,9.36
2018-01-25T16:22:56.883Z,9.35
2018-01-25T16:24:13.305Z,9.35
2018-01-25T16:25:21.401Z,9.35
2018-01-25T16:26:33.505Z,9.34
2018-01-25T16:27:42.024Z,9.32
2018-01-25T16:28:48.233Z,9.32
2018-01-25T16:29:54.923Z,9.31
2018-01-25T16:32:07.949Z,9.32
2018-01-25T16:33:14.208Z,9.31
2018-01-25T16:34:19.717Z,9.31
2018-01-25T16:35:28.366Z,9.31
2018-01-25T16:36:31.666Z,9.35
2018-01-25T16:38:07.758Z,9.35
2018-01-25T16:39:18.948Z,9.35
2018-01-25T16:40:25.757Z,9.34
2018-01-25T16:42:36.677Z,9.35
2018-01-25T16:43:41.953Z,9.32
2018-01-25T16:44:48.168Z,9.31
2018-01-25T16:47:02.435Z,9.31
2018-01-25T16:48:06.233Z,9.31
2018-01-25T16:49:15.293Z,9.31
2018-01-25T16:50:23.618Z,9.31
2018-01-25T16:51:34.298Z,9.30
2018-01-25T16:52:44.760Z,9.30
2018-01-25T16:55:08.746Z,9.31
2018-01-25T16:56:15.829Z,9.31
2018-01-25T16:57:24.588Z,9.31
2018-01-25T16:58:46.036Z,9.31